Terminal Aerodrome Forecast
Issued by NWS

Home | Current Version | Previous Version | Text Only | Print | Product List | Glossary Off
Versions: 1 2 3 4 5 6 7 8 9 10 11 12

329
FTUS41 KCLE 221121
TAFFDY
TAF
KFDY 221121Z 2212/2312 32010KT P6SM BKN040
     FM221400 32009KT P6SM SCT050
     FM221600 VRB06KT P6SM SCT250
     FM231100 20005KT P6SM BKN100=

USA.gov is the U.S. government's official web portal to all federal, state and local government web resources and services.